Quick Links (Output Below):   Max & Min Temps   /   Climate Reports   /   Zone Forecasts
River Forecasts   /   Forestry Forecasts   /   Aviation Forecasts   /   Radars   /   Features

Terminal Aerodrome Forecast (Arkadelphia)

Pick a Site:
Arkadelphia | El Dorado | Fayetteville | Fort Smith | Harrison | Highfill | Hot Springs | Jonesboro
Little Rock | Monticello | Mountain Home | Pine Bluff | Texarkana
 Forecast 

KADF 052320Z 0600/0624 34008KT P6SM SKC
     FM060100 VRB06KT P6SM SKC=


 Latest METARs (Observations) 
How to Decode METARs
23Z KADF 052256Z AUTO 31008KT 10SM CLR 26/09 A2996 RMK AO2 T02550094
         SLP158
         
22Z KADF 052156Z AUTO 32005KT 10SM CLR 25/08 A2997 RMK AO2 T02500077
         SLP162
         
21Z KADF 052056Z AUTO 36008KT 10SM CLR 25/09 A2998 RMK AO2 58017
         T02500088 SLP165
         
20Z KADF 051956Z AUTO 36009KT 320V020 10SM CLR 24/07 A3000 RMK AO2
         T02440072 SLP173
         
19Z KADF 051856Z AUTO 36009KT 320V040 10SM CLR 24/08 A3001 RMK AO2
         T02380077 SLP177
         
18Z KADF 051756Z AUTO 34007KT 10SM CLR 23/08 A3003 RMK AO2 58006
         T02270083 10227 20111 SLP182
         
17Z KADF 051656Z AUTO 31008KT 10SM CLR 22/08 A3005 RMK AO2 T02220083
         SLP188
         
16Z KADF 051556Z AUTO 35007KT 310V020 10SM CLR 22/06 A3006 RMK AO2
         T02160061 SLP191
         
15Z KADF 051456Z AUTO 33009KT 10SM CLR 21/09 A3005 RMK AO2 50009
         T02050088 SLP188
         
14Z KADF 051356Z AUTO 36005KT 10SM CLR 18/11 A3005 RMK AO2 T01830105
         SLP188
         
***** Today's Observations (Above) *****


Back to Main Page
http://www.srh.noaa.gov/lzk/qfcst.php

USA.gov is the U.S. government's official web portal to all federal, state and local government web resources and services.